Time;durP1;ratioP1;P1;durP2;ratioP2;P2;SDS_P1;SDS_P2;PMS_P1;PMS_P2;Temp;Humidity;BMP_temperature;BMP_pressure;BME280_temperature;BME280_humidity;BME280_pressure;Samples;Min_cycle;Max_cycle;Signal;HPM_P1;HPM_P2
2021/05/10 00:01:41;;;;;;;3.25;1.95;;;18.70;99.90;;;;;;5047482;28;20183;-91
2021/05/10 00:04:07;;;;;;;3.67;1.90;;;18.70;99.90;;;;;;5052979;28;20175;-90
2021/05/10 00:06:33;;;;;;;5.60;2.03;;;18.70;99.90;;;;;;5055299;28;20187;-91
2021/05/10 00:08:59;;;;;;;5.85;2.00;;;18.70;99.90;;;;;;5057272;28;20195;-91
2021/05/10 00:11:25;;;;;;;1.83;1.70;;;18.70;99.90;;;;;;5057009;28;20171;-91
2021/05/10 00:13:53;;;;;;;5.97;1.92;;;18.80;99.90;;;;;;5057129;28;20183;-89
2021/05/10 00:16:18;;;;;;;4.35;2.03;;;18.90;99.90;;;;;;5059526;28;20566;-90
2021/05/10 00:18:44;;;;;;;2.00;1.80;;;19.00;99.90;;;;;;5043415;28;20294;-91
2021/05/10 00:21:10;;;;;;;5.10;1.80;;;19.10;99.90;;;;;;5057427;28;20220;-90
2021/05/10 00:23:36;;;;;;;2.25;2.00;;;19.20;99.90;;;;;;5056750;28;20264;-90
2021/05/10 00:26:01;;;;;;;4.38;1.85;;;19.20;99.90;;;;;;5056745;28;20232;-91
2021/05/10 00:28:27;;;;;;;4.18;1.85;;;19.20;99.90;;;;;;5040217;28;20175;-90
2021/05/10 00:30:53;;;;;;;2.90;1.92;;;19.10;99.90;;;;;;5057145;28;20180;-90
2021/05/10 00:33:18;;;;;;;6.00;2.15;;;19.10;99.90;;;;;;5057148;28;20184;-91
2021/05/10 00:35:44;;;;;;;3.85;1.90;;;19.00;99.90;;;;;;5056337;28;20529;-90
2021/05/10 00:38:10;;;;;;;4.20;1.50;;;18.90;99.90;;;;;;5056860;28;20203;-90
2021/05/10 00:40:36;;;;;;;5.30;1.80;;;18.90;99.90;;;;;;5056427;28;20635;-90
2021/05/10 00:43:01;;;;;;;4.10;2.00;;;18.80;99.90;;;;;;5056233;28;20209;-89
2021/05/10 00:45:28;;;;;;;3.15;1.98;;;18.70;99.90;;;;;;5056553;28;20644;-90
2021/05/10 00:47:54;;;;;;;4.60;2.00;;;18.60;99.90;;;;;;5039700;28;20179;-90
2021/05/10 00:50:21;;;;;;;2.75;1.85;;;18.40;99.90;;;;;;5057079;28;20237;-90
2021/05/10 00:52:47;;;;;;;4.18;2.20;;;18.20;99.90;;;;;;5056183;28;20632;-90
2021/05/10 00:55:14;;;;;;;5.45;1.83;;;18.00;99.90;;;;;;5039518;28;20313;-90
2021/05/10 00:58:03;;;;;;;6.60;2.40;;;18.10;99.90;;;;;;5055922;28;20182;-90
2021/05/10 01:00:39;;;;;;;6.72;2.10;;;18.20;99.90;;;;;;5057175;28;20277;-90
2021/05/10 01:03:05;;;;;;;2.90;1.88;;;18.10;99.90;;;;;;5057040;28;20175;-90
2021/05/10 01:05:31;;;;;;;5.13;2.17;;;18.20;99.90;;;;;;5056079;28;20620;-90
2021/05/10 01:07:57;;;;;;;9.02;2.22;;;18.30;99.90;;;;;;5055566;28;20233;-90
2021/05/10 01:10:25;;;;;;;2.83;1.80;;;18.30;99.90;;;;;;5057154;28;20213;-91
2021/05/10 01:12:51;;;;;;;4.53;2.28;;;18.40;99.90;;;;;;5057610;28;20202;-90
2021/05/10 01:15:18;;;;;;;5.13;2.10;;;18.30;99.90;;;;;;5061840;28;20225;-90
2021/05/10 01:17:45;;;;;;;4.80;2.28;;;18.30;99.90;;;;;;5063817;28;20175;-90
2021/05/10 01:20:15;;;;;;;5.50;2.00;;;18.30;99.90;;;;;;5062063;28;20703;-90
2021/05/10 01:22:50;;;;;;;4.05;2.00;;;18.30;99.90;;;;;;5062814;28;20172;-90
2021/05/10 01:25:22;;;;;;;2.85;1.98;;;18.30;99.90;;;;;;5052210;28;20171;-90
2021/05/10 01:27:48;;;;;;;4.00;2.00;;;18.40;99.90;;;;;;5071906;28;20175;-89
2021/05/10 01:30:26;;;;;;;4.50;1.92;;;18.50;99.90;;;;;;5079673;28;20143;-90
2021/05/10 01:32:53;;;;;;;3.53;1.75;;;18.60;99.90;;;;;;5079885;28;20167;-88
2021/05/10 01:35:23;;;;;;;3.30;1.85;;;18.60;99.90;;;;;;5079914;28;20160;-90
2021/05/10 01:37:49;;;;;;;3.50;2.28;;;18.60;99.90;;;;;;5079636;28;20151;-90
2021/05/10 01:40:15;;;;;;;8.48;2.05;;;18.50;99.90;;;;;;5072435;28;20583;-91
2021/05/10 01:42:41;;;;;;;5.13;1.98;;;18.50;99.90;;;;;;5062288;28;20178;-91
2021/05/10 01:45:09;;;;;;;3.58;2.05;;;18.40;99.90;;;;;;5077208;28;20172;-90
2021/05/10 01:47:35;;;;;;;2.53;1.95;;;18.40;99.90;;;;;;5076185;28;20167;-90
2021/05/10 01:50:12;;;;;;;7.65;2.30;;;18.50;99.90;;;;;;5070428;28;20176;-89
2021/05/10 01:52:38;;;;;;;3.78;2.03;;;18.60;99.90;;;;;;5068342;28;20175;-91
2021/05/10 01:55:04;;;;;;;4.95;2.15;;;18.60;99.90;;;;;;5073790;28;20163;-91
2021/05/10 01:57:30;;;;;;;5.40;2.30;;;18.70;99.90;;;;;;5078536;28;20182;-90
2021/05/10 01:59:56;;;;;;;5.20;1.92;;;18.70;99.90;;;;;;5078387;28;20231;-92
2021/05/10 02:02:21;;;;;;;5.47;2.60;;;18.70;99.90;;;;;;5076323;28;20167;-91
2021/05/10 02:05:11;;;;;;;5.63;2.50;;;18.80;99.90;;;;;;5045033;28;20203;-89
2021/05/10 02:07:42;;;;;;;4.93;2.05;;;18.80;99.90;;;;;;5054516;28;20168;-90
2021/05/10 02:10:17;;;;;;;10.93;2.15;;;18.80;99.90;;;;;;5060184;28;20499;-90
2021/05/10 02:12:55;;;;;;;4.13;1.70;;;18.80;99.90;;;;;;5071920;28;20170;-90
2021/05/10 02:15:22;;;;;;;1.73;1.60;;;18.80;99.90;;;;;;5069374;28;20187;-91
2021/05/10 02:17:49;;;;;;;7.40;1.65;;;18.90;99.90;;;;;;5055788;28;20170;-91
2021/05/10 02:20:15;;;;;;;7.25;1.50;;;18.90;99.90;;;;;;5055614;28;20186;-93
2021/05/10 02:23:01;;;;;;;7.22;1.67;;;19.00;99.90;;;;;;5055155;28;20183;-90
2021/05/10 02:25:30;;;;;;;12.20;1.88;;;18.90;99.90;;;;;;5056382;28;20155;-90
2021/05/10 02:27:56;;;;;;;4.05;1.45;;;18.90;99.90;;;;;;5055975;28;20667;-90
2021/05/10 02:30:24;;;;;;;3.97;1.25;;;18.90;99.90;;;;;;5054819;28;20618;-89
2021/05/10 02:32:51;;;;;;;3.97;1.70;;;18.90;99.90;;;;;;5054895;28;20183;-89
2021/05/10 02:35:18;;;;;;;5.00;1.73;;;18.90;99.90;;;;;;5055031;28;20514;-89
2021/05/10 02:37:44;;;;;;;3.90;1.70;;;18.80;99.90;;;;;;5054099;28;20243;-89
2021/05/10 02:40:10;;;;;;;3.88;1.67;;;18.80;99.90;;;;;;5055348;28;20279;-89
2021/05/10 02:42:36;;;;;;;5.85;1.52;;;18.80;99.90;;;;;;5055246;28;20188;-90
2021/05/10 02:45:04;;;;;;;5.25;1.40;;;18.80;99.90;;;;;;5055323;28;20176;-90
2021/05/10 02:47:29;;;;;;;4.82;2.25;;;18.80;99.90;;;;;;5055042;28;20171;-90
2021/05/10 02:49:56;;;;;;;2.47;1.52;;;18.70;99.90;;;;;;5037597;28;20528;-90
2021/05/10 02:52:22;;;;;;;4.13;1.75;;;18.70;99.90;;;;;;5055320;28;20167;-90
2021/05/10 02:54:48;;;;;;;10.63;1.88;;;18.70;99.90;;;;;;5055097;28;20210;-92
2021/05/10 02:57:14;;;;;;;3.08;1.90;;;18.60;99.90;;;;;;5053782;28;20172;-92
2021/05/10 02:59:39;;;;;;;2.83;1.83;;;18.50;99.90;;;;;;5054629;28;20195;-90
2021/05/10 03:02:05;;;;;;;5.35;2.40;;;18.40;99.90;;;;;;5055208;28;20194;-89
2021/05/10 03:04:31;;;;;;;4.70;2.03;;;18.30;99.90;;;;;;5037324;28;20202;-90
2021/05/10 03:06:57;;;;;;;7.90;3.45;;;18.20;99.90;;;;;;5053738;28;20244;-90
2021/05/10 03:09:22;;;;;;;5.93;3.85;;;18.10;99.90;;;;;;5034705;28;20175;-89
2021/05/10 03:11:48;;;;;;;8.15;2.97;;;17.80;99.90;;;;;;5037624;28;20233;-91
2021/05/10 03:14:14;;;;;;;14.10;3.35;;;17.50;99.90;;;;;;5053913;28;20179;-90
2021/05/10 03:16:39;;;;;;;8.05;4.18;;;17.30;99.90;;;;;;5034107;28;20374;-92
2021/05/10 03:19:11;;;;;;;6.15;3.67;;;17.10;99.90;;;;;;5070426;28;20203;-92
2021/05/10 03:21:40;;;;;;;7.55;3.97;;;16.80;99.90;;;;;;5055154;28;20221;-93
2021/05/10 03:24:07;;;;;;;4.13;2.92;;;16.60;99.90;;;;;;5056529;28;20171;-94
2021/05/10 03:26:37;;;;;;;4.03;2.70;;;16.40;99.90;;;;;;5054645;28;20175;-94
2021/05/10 03:29:04;;;;;;;3.58;1.98;;;16.20;99.90;;;;;;5054908;28;20176;-93
2021/05/10 03:31:30;;;;;;;7.45;2.25;;;16.00;99.90;;;;;;5055227;28;20232;-90
2021/05/10 03:33:56;;;;;;;2.90;2.17;;;15.80;99.90;;;;;;5037861;28;20187;-91
2021/05/10 03:36:21;;;;;;;6.95;2.10;;;15.70;99.90;;;;;;5053991;28;20174;-93
2021/05/10 03:38:47;;;;;;;4.82;2.60;;;15.70;99.90;;;;;;5053166;28;20195;-91
2021/05/10 03:41:12;;;;;;;3.38;2.45;;;15.70;99.90;;;;;;5056733;28;20239;-92
2021/05/10 03:43:38;;;;;;;3.25;2.45;;;15.70;99.90;;;;;;5059880;28;20172;-93
2021/05/10 03:46:04;;;;;;;2.95;2.50;;;15.70;99.90;;;;;;5060287;28;20171;-92
2021/05/10 03:48:29;;;;;;;4.18;3.05;;;15.80;99.90;;;;;;5060709;28;20244;-90
2021/05/10 03:50:55;;;;;;;4.30;3.90;;;15.90;99.90;;;;;;5060378;28;20174;-94
2021/05/10 03:53:21;;;;;;;4.40;3.75;;;15.80;99.90;;;;;;5059999;28;20163;-92
2021/05/10 03:55:47;;;;;;;5.05;4.07;;;15.90;99.90;;;;;;5059948;28;20216;-93
2021/05/10 03:58:13;;;;;;;8.05;4.18;;;15.80;99.90;;;;;;5059715;28;20198;-92
2021/05/10 04:00:38;;;;;;;8.07;4.72;;;15.80;99.90;;;;;;5060167;28;20635;-92
2021/05/10 04:03:07;;;;;;;7.07;5.00;;;15.90;99.90;;;;;;5060956;28;20183;-92
2021/05/10 04:15:47;;;;;;;6.22;5.60;;;16.10;99.90;;;;;;5060607;28;20183;-91
2021/05/10 04:18:14;;;;;;;8.00;6.05;;;16.20;99.90;;;;;;5059956;28;20201;-92
2021/05/10 04:20:39;;;;;;;8.75;6.07;;;16.20;99.90;;;;;;5059836;28;20167;-91
2021/05/10 04:23:05;;;;;;;7.95;5.95;;;16.30;99.90;;;;;;5059639;28;20217;-91
2021/05/10 04:25:31;;;;;;;12.07;6.18;;;16.40;99.90;;;;;;5058542;28;20175;-91
2021/05/10 04:27:56;;;;;;;8.32;6.35;;;16.30;99.90;;;;;;5077470;28;20179;-92
2021/05/10 04:30:23;;;;;;;13.02;6.18;;;16.10;99.90;;;;;;5072171;28;20228;-92
2021/05/10 04:32:48;;;;;;;10.95;6.40;;;16.10;99.90;;;;;;5060094;28;20651;-91
2021/05/10 04:35:14;;;;;;;7.90;5.88;;;16.00;99.90;;;;;;5059661;28;20218;-91
2021/05/10 04:37:40;;;;;;;6.65;5.45;;;16.00;99.90;;;;;;5043200;28;20266;-91
2021/05/10 04:40:07;;;;;;;6.50;4.97;;;15.90;99.90;;;;;;5059839;28;20191;-91
2021/05/10 04:42:33;;;;;;;6.97;3.95;;;15.90;99.90;;;;;;5065569;28;20167;-91
2021/05/10 04:44:59;;;;;;;4.90;3.25;;;15.90;99.90;;;;;;5076469;28;20164;-91
2021/05/10 04:47:35;;;;;;;4.35;2.33;;;15.80;99.90;;;;;;5051708;28;20176;-91
2021/05/10 04:50:02;;;;;;;3.70;2.25;;;15.80;99.90;;;;;;5043137;28;20164;-91
2021/05/10 04:52:28;;;;;;;4.32;1.70;;;15.80;99.90;;;;;;5076707;28;20198;-92
2021/05/10 04:54:53;;;;;;;2.30;1.73;;;15.80;99.90;;;;;;5057405;28;20183;-90
2021/05/10 04:57:21;;;;;;;1.60;1.40;;;15.80;99.90;;;;;;5057190;28;20171;-91
2021/05/10 04:59:46;;;;;;;2.47;1.70;;;15.80;99.90;;;;;;5057401;28;20199;-91
2021/05/10 05:02:12;;;;;;;3.85;1.65;;;15.80;99.90;;;;;;5058851;28;20183;-90
2021/05/10 05:04:37;;;;;;;2.45;1.58;;;15.90;99.90;;;;;;5057674;28;20247;-92
2021/05/10 05:07:03;;;;;;;3.05;1.63;;;16.00;99.90;;;;;;5056174;28;20208;-91
2021/05/10 05:09:29;;;;;;;5.38;1.42;;;16.00;99.90;;;;;;5057605;28;20215;-91
2021/05/10 05:11:54;;;;;;;1.45;1.35;;;16.10;99.90;;;;;;5056298;28;20168;-90
2021/05/10 05:14:20;;;;;;;3.80;1.40;;;16.10;99.90;;;;;;5056439;28;20317;-94
2021/05/10 05:16:45;;;;;;;2.58;1.38;;;16.10;99.90;;;;;;5056367;28;20297;-92
2021/05/10 05:19:11;;;;;;;2.63;1.40;;;16.00;99.90;;;;;;5056416;28;20198;-90
2021/05/10 05:21:37;;;;;;;1.30;1.25;;;15.90;99.90;;;;;;5039740;28;20172;-91
2021/05/10 05:24:03;;;;;;;2.20;1.30;;;15.90;99.90;;;;;;5056292;28;20163;-90
2021/05/10 05:26:28;;;;;;;3.03;1.42;;;15.80;99.90;;;;;;5056135;28;20168;-90
2021/05/10 05:28:54;;;;;;;1.88;1.40;;;15.70;99.90;;;;;;5055750;28;20189;-92
2021/05/10 05:31:22;;;;;;;2.38;1.55;;;15.70;99.90;;;;;;5056496;28;20211;-90
2021/05/10 05:33:48;;;;;;;2.30;1.70;;;15.60;99.90;;;;;;5055772;28;20187;-93
2021/05/10 05:36:13;;;;;;;1.98;1.60;;;15.60;99.90;;;;;;5055672;28;20167;-94
2021/05/10 05:38:40;;;;;;;1.95;1.35;;;15.60;99.90;;;;;;5055736;28;20199;-91
2021/05/10 05:41:06;;;;;;;1.83;1.30;;;15.60;99.90;;;;;;5055863;28;20316;-91
2021/05/10 05:43:32;;;;;;;1.63;1.50;;;15.50;99.90;;;;;;5058243;28;20235;-92
2021/05/10 05:45:58;;;;;;;1.63;1.50;;;15.50;99.90;;;;;;5039535;28;20175;-91
2021/05/10 05:48:23;;;;;;;11.93;1.80;;;15.40;99.90;;;;;;5056825;28;20177;-90
2021/05/10 05:50:49;;;;;;;1.80;1.70;;;15.30;99.90;;;;;;5039423;28;20171;-91
2021/05/10 05:53:15;;;;;;;1.95;1.83;;;15.20;99.90;;;;;;5057177;28;20159;-91
2021/05/10 05:55:41;;;;;;;3.45;1.92;;;15.20;99.90;;;;;;5057052;28;20229;-91
2021/05/10 05:58:07;;;;;;;5.95;2.67;;;15.20;99.90;;;;;;5057889;28;20206;-91
2021/05/10 06:00:33;;;;;;;5.82;1.88;;;15.10;99.90;;;;;;5055619;28;20175;-91
2021/05/10 06:02:58;;;;;;;6.90;2.50;;;15.00;99.90;;;;;;5036101;28;20183;-90
2021/05/10 06:05:24;;;;;;;4.50;1.92;;;15.00;99.90;;;;;;5037597;28;20180;-93
2021/05/10 06:07:50;;;;;;;2.00;1.90;;;15.00;99.90;;;;;;5055492;28;20228;-90
2021/05/10 06:10:21;;;;;;;3.20;2.13;;;15.10;99.90;;;;;;5055429;28;20167;-90
2021/05/10 06:12:50;;;;;;;3.47;2.28;;;15.00;99.90;;;;;;5058074;28;20152;-90
2021/05/10 06:15:21;;;;;;;3.90;1.92;;;15.00;99.90;;;;;;5057922;28;20199;-90
2021/05/10 06:17:48;;;;;;;4.72;1.63;;;14.90;99.90;;;;;;5069341;28;20609;-89
2021/05/10 06:20:15;;;;;;;2.40;1.85;;;14.80;99.90;;;;;;5041052;28;20242;-91
2021/05/10 06:22:41;;;;;;;3.28;2.10;;;14.80;99.90;;;;;;5058154;28;20175;-91
2021/05/10 06:25:12;;;;;;;5.57;2.25;;;15.00;99.90;;;;;;5055936;28;20285;-91
2021/05/10 06:27:37;;;;;;;3.97;3.28;;;15.20;99.90;;;;;;5056677;28;20586;-87
2021/05/10 06:30:08;;;;;;;8.02;2.92;;;15.40;99.90;;;;;;5056220;28;20187;-90
2021/05/10 06:32:34;;;;;;;6.90;3.50;;;15.80;99.90;;;;;;5055172;28;20230;-91
2021/05/10 06:34:59;;;;;;;2.88;2.67;;;16.30;99.90;;;;;;5055178;28;20628;-90
2021/05/10 06:37:29;;;;;;;3.65;3.00;;;16.60;99.90;;;;;;5035242;28;20180;-89
2021/05/10 06:39:58;;;;;;;3.15;2.65;;;16.60;99.90;;;;;;5054654;28;20653;-91
2021/05/10 06:42:25;;;;;;;8.32;2.95;;;16.50;99.90;;;;;;5072504;28;20541;-91
2021/05/10 06:44:51;;;;;;;6.93;2.20;;;16.50;99.90;;;;;;5054428;28;20180;-93
2021/05/10 06:47:16;;;;;;;3.42;1.80;;;16.40;99.90;;;;;;5055499;28;20179;-90
2021/05/10 06:49:42;;;;;;;5.55;2.08;;;16.50;99.90;;;;;;5055043;28;20171;-91
2021/05/10 06:52:08;;;;;;;4.25;1.65;;;16.50;99.90;;;;;;5037998;28;20507;-92
2021/05/10 06:54:33;;;;;;;2.65;2.30;;;16.70;99.90;;;;;;5053721;28;20687;-90
2021/05/10 06:56:59;;;;;;;2.78;1.80;;;16.80;99.90;;;;;;5062329;28;20609;-90
2021/05/10 06:59:24;;;;;;;4.75;1.60;;;16.80;99.90;;;;;;5072980;28;20199;-90
2021/05/10 07:01:50;;;;;;;1.88;1.60;;;16.90;99.90;;;;;;5053687;28;20186;-90
2021/05/10 07:04:16;;;;;;;2.05;1.70;;;17.20;99.90;;;;;;5058909;28;20641;-91
2021/05/10 07:06:42;;;;;;;3.60;1.95;;;17.30;99.90;;;;;;5053605;28;20182;-91
2021/05/10 07:09:08;;;;;;;1.80;1.70;;;17.40;99.90;;;;;;5055014;28;20171;-91
2021/05/10 07:11:34;;;;;;;2.85;1.88;;;17.40;99.90;;;;;;5054779;28;20163;-91
2021/05/10 07:14:00;;;;;;;3.00;1.70;;;17.50;99.90;;;;;;5053710;28;20208;-90
2021/05/10 07:16:26;;;;;;;2.38;1.67;;;17.60;99.90;;;;;;5052690;28;20167;-89
2021/05/10 07:18:54;;;;;;;2.72;1.75;;;17.40;99.90;;;;;;5071438;28;20191;-90
2021/05/10 07:21:20;;;;;;;3.92;1.67;;;17.60;99.90;;;;;;5057177;28;20177;-91
2021/05/10 07:23:45;;;;;;;3.33;1.70;;;17.60;99.90;;;;;;5053165;28;20172;-90
2021/05/10 07:26:11;;;;;;;1.83;1.65;;;17.70;99.90;;;;;;5053527;28;20205;-91
2021/05/10 07:28:36;;;;;;;8.13;2.00;;;18.00;99.90;;;;;;5053312;28;20213;-91
2021/05/10 07:31:02;;;;;;;4.40;1.70;;;18.30;99.90;;;;;;5053675;28;20182;-90
2021/05/10 07:33:28;;;;;;;3.17;1.80;;;18.80;99.90;;;;;;5053157;28;20187;-90
2021/05/10 07:35:53;;;;;;;2.42;1.70;;;19.60;99.90;;;;;;5053231;28;20617;-91
2021/05/10 07:38:19;;;;;;;2.67;1.88;;;19.40;99.90;;;;;;5036832;28;20660;-89
2021/05/10 07:40:45;;;;;;;3.72;1.80;;;18.90;99.90;;;;;;5054651;28;20159;-91
2021/05/10 07:43:10;;;;;;;5.40;1.80;;;18.80;99.90;;;;;;5053071;28;20525;-92
2021/05/10 07:45:36;;;;;;;6.43;1.60;;;18.50;99.90;;;;;;5053198;28;20625;-89
2021/05/10 07:48:02;;;;;;;2.05;1.85;;;18.10;99.90;;;;;;5054201;28;20172;-90
2021/05/10 07:50:28;;;;;;;2.10;1.90;;;17.80;99.90;;;;;;5053417;28;20164;-91
2021/05/10 07:52:54;;;;;;;4.30;1.88;;;17.70;99.90;;;;;;5052991;28;20176;-91
2021/05/10 07:55:21;;;;;;;2.65;1.80;;;17.70;99.90;;;;;;5050988;28;20394;-90
2021/05/10 07:57:47;;;;;;;7.18;2.28;;;17.60;99.90;;;;;;5044064;28;20328;-90
2021/05/10 08:00:18;;;;;;;5.78;2.10;;;17.50;99.90;;;;;;5054403;28;20294;-90
2021/05/10 08:02:44;;;;;;;5.43;2.03;;;17.50;99.90;;;;;;5053832;28;20175;-90
2021/05/10 08:05:11;;;;;;;6.55;2.00;;;17.50;99.90;;;;;;5035773;28;20168;-90
2021/05/10 08:07:36;;;;;;;4.47;2.58;;;17.60;99.90;;;;;;5049075;28;20264;-91
2021/05/10 08:10:04;;;;;;;3.13;2.03;;;17.60;99.90;;;;;;5034974;28;20262;-90
2021/05/10 08:12:30;;;;;;;2.75;1.48;;;17.70;99.90;;;;;;5044823;28;20184;-89
2021/05/10 08:14:56;;;;;;;3.97;2.15;;;17.90;99.90;;;;;;5067189;28;20639;-91
2021/05/10 08:17:22;;;;;;;3.20;1.80;;;17.80;99.90;;;;;;5053069;28;20207;-88
2021/05/10 08:19:48;;;;;;;3.10;2.00;;;17.70;99.90;;;;;;5053522;28;20187;-90
2021/05/10 08:22:15;;;;;;;3.28;2.00;;;17.50;99.90;;;;;;5054115;28;20616;-89
2021/05/10 08:24:40;;;;;;;3.13;1.70;;;17.30;99.90;;;;;;5052531;28;20257;-89
2021/05/10 08:27:06;;;;;;;4.60;1.63;;;17.30;99.90;;;;;;5069874;28;20206;-91
2021/05/10 08:29:33;;;;;;;6.05;2.20;;;17.30;99.90;;;;;;5056843;28;20179;-89
2021/05/10 08:31:59;;;;;;;2.35;1.85;;;17.20;99.90;;;;;;5047226;28;20674;-90
2021/05/10 08:34:25;;;;;;;7.38;2.20;;;17.30;99.90;;;;;;5062724;28;21221;-91
2021/05/10 08:36:52;;;;;;;4.30;2.15;;;17.30;99.90;;;;;;5045490;28;20269;-90
2021/05/10 08:39:18;;;;;;;5.90;2.00;;;17.30;99.90;;;;;;5057920;28;20265;-85
2021/05/10 08:41:43;;;;;;;6.20;2.10;;;17.30;99.90;;;;;;5049294;28;20176;-89
2021/05/10 08:44:10;;;;;;;7.90;1.95;;;17.50;99.90;;;;;;5056332;28;20532;-90
2021/05/10 08:46:37;;;;;;;3.92;1.80;;;17.80;99.90;;;;;;5065707;28;20187;-88
2021/05/10 08:49:04;;;;;;;6.43;2.00;;;17.80;99.90;;;;;;5072440;28;20191;-90
2021/05/10 08:51:31;;;;;;;2.85;1.75;;;17.90;99.90;;;;;;5073050;28;20186;-88
2021/05/10 08:53:57;;;;;;;8.23;2.47;;;17.80;99.90;;;;;;5074983;28;20190;-89
2021/05/10 08:56:23;;;;;;;5.95;1.80;;;17.70;99.90;;;;;;5070909;28;20172;-90
2021/05/10 08:58:49;;;;;;;2.40;1.33;;;17.60;99.90;;;;;;5057166;28;20244;-90
2021/05/10 09:01:15;;;;;;;4.93;1.90;;;17.50;99.90;;;;;;5055836;28;20262;-89
2021/05/10 09:03:46;;;;;;;2.90;1.40;;;17.60;99.90;;;;;;5054192;28;20180;-90
2021/05/10 09:06:33;;;;;;;2.15;1.50;;;17.80;99.90;;;;;;5055881;28;20175;-90
2021/05/10 09:09:09;;;;;;;7.05;2.10;;;17.90;99.90;;;;;;5056353;28;20222;-91
2021/05/10 09:11:56;;;;;;;7.85;1.98;;;18.20;99.90;;;;;;5054987;28;20178;-89
2021/05/10 09:14:34;;;;;;;5.20;1.77;;;18.80;99.90;;;;;;5055350;28;20199;-90
2021/05/10 09:16:59;;;;;;;3.50;1.90;;;19.40;99.90;;;;;;5055196;28;20180;-90
2021/05/10 09:19:49;;;;;;;4.88;1.60;;;19.80;99.90;;;;;;5056093;28;20206;-88
2021/05/10 09:22:16;;;;;;;3.15;1.60;;;19.70;99.90;;;;;;5051975;28;20172;-89
2021/05/10 09:24:50;;;;;;;6.13;1.63;;;19.70;99.90;;;;;;5055097;28;20179;-89
2021/05/10 09:27:25;;;;;;;8.30;2.40;;;19.60;99.90;;;;;;5055857;28;20210;-89
2021/05/10 09:30:12;;;;;;;10.32;2.08;;;20.70;99.90;;;;;;5098757;28;20223;-89
2021/05/10 09:32:38;;;;;;;6.80;2.28;;;21.20;99.90;;;;;;5067994;28;20319;-90
2021/05/10 09:35:18;;;;;;;7.28;1.60;;;21.90;99.90;;;;;;5069269;28;20163;-88
2021/05/10 09:37:45;;;;;;;4.15;1.60;;;23.10;99.90;;;;;;5055559;28;20506;-88
2021/05/10 09:40:11;;;;;;;8.75;1.70;;;24.30;99.90;;;;;;5059101;28;20587;-89
2021/05/10 09:42:55;;;;;;;3.17;1.65;;;25.50;99.90;;;;;;5056849;28;20177;-88
2021/05/10 09:45:32;;;;;;;5.30;1.33;;;27.30;99.90;;;;;;5062480;28;20552;-88
2021/05/10 09:48:30;;;;;;;9.95;2.08;;;25.50;99.90;;;;;;5047761;28;20179;-89
2021/05/10 09:51:01;;;;;;;4.28;1.60;;;23.40;99.90;;;;;;5055490;28;20160;-89
2021/05/10 09:53:32;;;;;;;4.18;1.40;;;22.00;99.90;;;;;;5063109;28;20258;-89
2021/05/10 09:55:58;;;;;;;5.07;1.65;;;22.10;99.90;;;;;;5055390;28;20171;-88
2021/05/10 09:58:44;;;;;;;7.38;1.55;;;22.60;99.90;;;;;;5055143;28;20260;-90
2021/05/10 10:01:10;;;;;;;6.63;1.85;;;23.00;99.90;;;;;;5056139;28;20170;-89
2021/05/10 10:03:44;;;;;;;5.07;1.80;;;24.60;99.90;;;;;;5055107;28;20186;-88
2021/05/10 10:06:14;;;;;;;4.30;1.67;;;24.80;99.90;;;;;;5043392;28;20529;-88
2021/05/10 10:08:42;;;;;;;7.50;1.55;;;25.60;99.90;;;;;;5049174;28;20236;-90
2021/05/10 10:11:10;;;;;;;3.58;1.23;;;25.90;99.90;;;;;;5055922;28;20236;-89
2021/05/10 10:13:37;;;;;;;6.05;1.73;;;26.00;99.90;;;;;;5056331;28;20179;-90
2021/05/10 10:16:04;;;;;;;3.13;1.20;;;26.20;99.90;;;;;;5037247;28;20184;-90
2021/05/10 10:18:30;;;;;;;2.83;1.52;;;26.30;99.90;;;;;;5056103;28;20341;-89
2021/05/10 10:20:59;;;;;;;3.95;1.30;;;27.30;99.90;;;;;;5055841;28;20247;-90
2021/05/10 10:23:27;;;;;;;6.75;1.40;;;28.10;99.90;;;;;;5056290;28;20199;-89
2021/05/10 10:25:58;;;;;;;3.33;1.50;;;28.50;99.90;;;;;;5055835;28;20171;-90
2021/05/10 10:28:26;;;;;;;4.18;1.27;;;27.10;99.90;;;;;;5054146;28;20663;-90
2021/05/10 10:31:01;;;;;;;5.28;1.63;;;26.40;99.90;;;;;;5054694;28;20198;-89
2021/05/10 10:33:32;;;;;;;9.05;1.40;;;24.80;99.90;;;;;;5054062;28;20324;-89
2021/05/10 10:35:59;;;;;;;5.13;1.50;;;23.90;99.90;;;;;;5054406;28;20259;-90
2021/05/10 10:38:33;;;;;;;4.03;1.35;;;23.30;99.90;;;;;;5053663;28;20199;-88
2021/05/10 10:41:31;;;;;;;3.10;1.27;;;23.50;99.90;;;;;;5054754;28;20166;-88
2021/05/10 10:44:26;;;;;;;3.78;1.10;;;25.80;99.90;;;;;;5059410;28;20195;-89
2021/05/10 10:46:51;;;;;;;9.43;1.60;;;27.40;99.90;;;;;;5055388;28;20168;-90
2021/05/10 10:49:36;;;;;;;7.80;1.20;;;28.60;99.90;;;;;;5054567;28;20282;-90
2021/05/10 10:52:04;;;;;;;7.03;1.58;;;29.20;99.90;;;;;;5051707;28;20632;-90
2021/05/10 10:54:30;;;;;;;2.63;1.40;;;29.50;99.90;;;;;;5053814;28;20240;-90
2021/05/10 10:57:01;;;;;;;4.57;1.33;;;28.80;99.20;;;;;;5053736;28;20171;-89
2021/05/10 10:59:26;;;;;;;4.63;1.52;;;28.60;99.90;;;;;;5054124;28;20206;-91
2021/05/10 11:01:53;;;;;;;4.28;1.48;;;27.20;99.00;;;;;;5053650;28;20644;-88
2021/05/10 11:04:29;;;;;;;4.85;1.00;;;24.70;99.90;;;;;;5054398;28;20176;-90
2021/05/10 11:06:56;;;;;;;3.28;1.38;;;23.00;99.90;;;;;;5082914;28;20170;-88
2021/05/10 11:09:47;;;;;;;4.53;1.25;;;22.10;99.90;;;;;;5038397;28;20241;-90
2021/05/10 11:12:48;;;;;;;4.22;1.40;;;21.50;99.90;;;;;;5038602;28;20175;-89
2021/05/10 11:15:35;;;;;;;5.00;1.75;;;20.70;99.90;;;;;;5049352;28;20173;-89
2021/05/10 11:18:02;;;;;;;4.20;1.70;;;20.10;99.90;;;;;;5053330;28;20180;-88
2021/05/10 11:20:42;;;;;;;4.95;1.63;;;19.70;99.90;;;;;;5053251;28;20171;-89
2021/05/10 11:23:30;;;;;;;5.05;2.05;;;19.60;99.90;;;;;;5043393;28;20191;-88
2021/05/10 11:25:58;;;;;;;14.77;2.08;;;21.30;99.90;;;;;;5055608;28;20180;-88
2021/05/10 11:28:27;;;;;;;6.13;1.60;;;23.30;99.90;;;;;;5059673;28;20180;-88
2021/05/10 11:31:05;;;;;;;5.88;1.63;;;22.40;99.90;;;;;;5051514;28;20186;-88
2021/05/10 11:33:55;;;;;;;11.32;2.10;;;21.40;99.90;;;;;;5055685;28;20213;-88
2021/05/10 11:36:21;;;;;;;2.88;1.40;;;21.10;99.90;;;;;;5065120;28;20217;-88
2021/05/10 11:38:57;;;;;;;3.53;1.40;;;21.20;99.90;;;;;;5071899;28;20199;-91
2021/05/10 11:41:33;;;;;;;4.20;1.40;;;22.00;99.90;;;;;;5061469;28;20188;-92
2021/05/10 11:44:01;;;;;;;10.50;1.60;;;22.10;99.90;;;;;;5076412;28;20171;-90
2021/05/10 11:46:42;;;;;;;9.00;1.38;;;21.50;99.90;;;;;;5057465;28;20197;-91
2021/05/10 11:49:10;;;;;;;5.10;1.63;;;21.00;99.90;;;;;;5066949;28;20184;-89
2021/05/10 11:51:40;;;;;;;9.05;1.50;;;21.10;99.90;;;;;;5082543;28;20176;-90
2021/05/10 11:54:10;;;;;;;4.93;1.25;;;20.80;99.90;;;;;;5052654;28;20254;-90
2021/05/10 11:56:43;;;;;;;4.05;1.45;;;20.40;99.90;;;;;;5054897;28;20202;-90
2021/05/10 11:59:44;;;;;;;4.18;1.27;;;19.90;99.90;;;;;;5019141;28;20250;-87
2021/05/10 12:02:09;;;;;;;9.85;2.25;;;19.90;99.90;;;;;;5047379;28;20176;-88
2021/05/10 12:04:36;;;;;;;4.40;1.45;;;20.30;99.90;;;;;;5069077;28;20767;-90
2021/05/10 12:07:04;;;;;;;7.05;1.80;;;20.40;99.90;;;;;;5056881;28;20189;-88
2021/05/10 12:09:56;;;;;;;6.07;1.85;;;20.40;99.90;;;;;;5059672;28;20208;-87
2021/05/10 12:12:28;;;;;;;6.18;1.95;;;20.30;99.90;;;;;;5056490;28;20167;-88
2021/05/10 12:14:57;;;;;;;8.48;2.05;;;20.40;99.90;;;;;;5056725;28;20168;-88
2021/05/10 12:17:25;;;;;;;4.50;1.90;;;22.00;99.90;;;;;;5050195;28;20179;-87
2021/05/10 12:19:55;;;;;;;4.70;1.85;;;22.80;99.90;;;;;;5062512;28;20288;-89
2021/05/10 12:22:23;;;;;;;8.45;1.60;;;22.20;99.90;;;;;;5053951;28;20230;-89
2021/05/10 12:24:55;;;;;;;4.43;1.45;;;21.70;99.90;;;;;;5055931;28;20251;-88
2021/05/10 12:27:22;;;;;;;5.72;1.13;;;21.50;99.90;;;;;;5057136;28;20678;-87
2021/05/10 12:29:49;;;;;;;10.27;1.67;;;21.20;99.90;;;;;;5035854;28;20191;-87
2021/05/10 12:32:14;;;;;;;7.28;1.05;;;21.10;99.90;;;;;;5053566;28;20179;-88
2021/05/10 12:34:41;;;;;;;14.43;1.45;;;21.20;99.90;;;;;;5039827;28;20177;-86
2021/05/10 12:37:07;;;;;;;9.15;1.38;;;21.40;99.90;;;;;;5054626;28;20172;-86
2021/05/10 12:39:33;;;;;;;5.88;2.00;;;21.50;99.90;;;;;;5039005;28;20203;-88
2021/05/10 12:42:16;;;;;;;9.68;2.42;;;21.50;99.90;;;;;;5055281;28;20266;-88
2021/05/10 12:44:42;;;;;;;4.45;1.98;;;21.40;99.90;;;;;;5089782;28;20183;-88
2021/05/10 12:47:08;;;;;;;7.25;1.80;;;21.30;99.90;;;;;;5084965;28;20232;-87
2021/05/10 12:49:42;;;;;;;7.65;1.42;;;21.40;99.90;;;;;;5055537;28;20176;-86
2021/05/10 12:52:07;;;;;;;5.95;1.95;;;21.50;99.90;;;;;;5054979;28;20211;-86
2021/05/10 12:54:44;;;;;;;6.93;1.98;;;21.40;99.90;;;;;;5055953;28;20178;-88
2021/05/10 12:57:09;;;;;;;4.80;1.95;;;21.20;99.90;;;;;;5085925;28;20202;-87
2021/05/10 12:59:53;;;;;;;5.22;2.03;;;21.20;99.90;;;;;;5055700;28;20648;-89
2021/05/10 13:02:19;;;;;;;5.63;2.22;;;21.30;99.90;;;;;;5038292;28;20182;-88
2021/05/10 13:04:46;;;;;;;4.10;1.60;;;21.20;99.90;;;;;;5055957;28;20179;-86